Chapadmalal, Argentina
Current Conditions -  °F | °C
As of 6:00 PM on Monday 24 Nov 2014 (Local Time) from SAZM Reporting Station
Clear Clear  
Wind Chill: 66°   Ceiling: Unl
Heat Index: 66°   Visibility: 6mi
Dew Point: 45°   Wind: 13mph
Humidity: 46%   Direction: 230°SW
Pressure: 29.8"   Gusts: NA
Location:  38.11°S, 57.98°W
Report Text: SAZM 242100Z 23011KT CAVOK 19/07 Q1009
Loading
Personal Weather Stations






























Interactive Weather Map New forecast layout! Learn more

10-Day Weather Forecast

Advertisements
Track Severe Weather on mobile